createdAt,value
2023-04-12T00:00:01.402Z,3.40
2023-04-12T00:20:01.200Z,2.70
2023-04-12T00:30:01.201Z,2.90
2023-04-12T00:40:00.872Z,2.50
2023-04-12T00:50:01.808Z,2.60
2023-04-12T01:00:00.925Z,2.80
2023-04-12T01:20:01.216Z,2.30
2023-04-12T01:40:00.887Z,2.80
2023-04-12T02:00:00.928Z,2.20
2023-04-12T02:10:00.352Z,2.10
2023-04-12T02:20:01.972Z,1.90
2023-04-12T02:40:00.886Z,1.80
2023-04-12T03:00:01.061Z,1.40
2023-04-12T03:10:00.363Z,1.00
2023-04-12T03:20:01.124Z,1.60
2023-04-12T03:40:01.158Z,1.00
2023-04-12T03:50:12.191Z,1.20
2023-04-12T04:20:01.044Z,1.60
2023-04-12T04:40:01.026Z,0.80
2023-04-12T05:00:00.352Z,1.20
2023-04-12T05:20:01.605Z,1.10
2023-04-12T05:40:01.550Z,0.90
2023-04-12T06:20:01.478Z,1.00
2023-04-12T07:00:00.966Z,2.50
2023-04-12T07:10:00.349Z,2.10
2023-04-12T07:20:01.376Z,3.40
2023-04-12T07:40:00.562Z,1.80
2023-04-12T08:00:01.050Z,1.20
2023-04-12T08:20:00.899Z,1.30
2023-04-12T08:40:02.332Z,1.50
2023-04-12T09:00:02.327Z,2.60
2023-04-12T09:20:01.456Z,3.00
2023-04-12T09:40:01.117Z,1.20
2023-04-12T10:00:01.395Z,2.20
2023-04-12T10:20:01.002Z,2.10
2023-04-12T10:40:00.947Z,0.90
2023-04-12T11:00:01.109Z,131.10
2023-04-12T11:20:01.659Z,682.10
2023-04-12T11:40:01.142Z,747.00
2023-04-12T12:00:01.582Z,723.20
2023-04-12T12:20:01.970Z,724.50
2023-04-12T12:40:00.944Z,657.50
2023-04-12T13:00:01.702Z,594.50
2023-04-12T13:20:01.151Z,579.10
2023-04-12T13:40:00.940Z,561.00
2023-04-12T14:00:01.210Z,465.80
2023-04-12T14:20:00.993Z,146.00
2023-04-12T14:40:01.149Z,16.50
2023-04-12T15:00:00.312Z,12.90
2023-04-12T15:20:00.895Z,14.60
2023-04-12T15:40:01.304Z,13.70
2023-04-12T16:00:00.933Z,10.40
2023-04-12T16:40:02.357Z,9.80
2023-04-12T17:20:03.201Z,11.30
2023-04-12T17:40:01.109Z,11.50
2023-04-12T18:40:01.776Z,11.30
2023-04-12T19:20:00.826Z,12.60
2023-04-12T19:30:00.925Z,10.80
2023-04-12T19:40:01.127Z,12.90
2023-04-12T20:00:02.549Z,11.30
2023-04-12T20:40:00.897Z,9.90
2023-04-12T21:00:01.136Z,12.10
2023-04-12T21:20:01.410Z,10.80
2023-04-12T21:30:01.461Z,11.40
2023-04-12T21:40:01.322Z,10.90
2023-04-12T22:10:00.928Z,9.60
2023-04-12T22:50:02.148Z,11.10
2023-04-12T23:00:00.923Z,13.60
2023-04-12T23:20:02.359Z,11.50
2023-04-12T23:40:00.918Z,14.40
2023-04-12T23:50:04.385Z,13.20
